Time;durP1;ratioP1;P1;durP2;ratioP2;P2;SDS_P1;SDS_P2;PMS_P1;PMS_P2;Temp;Humidity;BMP_temperature;BMP_pressure;BME280_temperature;BME280_humidity;BME280_pressure;Samples;Min_cycle;Max_cycle;Signal;HPM_P1;HPM_P2
2022/04/18 00:06:00;;;;;;;3.10;2.07;;;7.00;99.90;;;;;;20882880;28;20507;-75
2022/04/18 00:16:00;;;;;;;3.37;2.20;;;6.90;99.90;;;;;;20854163;28;20067;-75
2022/04/18 00:26:01;;;;;;;5.03;2.30;;;6.90;99.90;;;;;;20868927;28;20107;-75
2022/04/18 00:36:03;;;;;;;3.30;1.97;;;6.40;99.90;;;;;;20872903;28;20108;-75
2022/04/18 00:46:03;;;;;;;2.50;1.92;;;6.50;99.90;;;;;;20867460;28;20437;-74
2022/04/18 00:56:13;;;;;;;6.03;2.30;;;6.30;99.90;;;;;;20849076;28;20095;-76
2022/04/18 01:06:15;;;;;;;3.78;2.08;;;6.30;99.90;;;;;;20812629;28;20376;-76
2022/04/18 01:16:16;;;;;;;3.35;1.85;;;6.10;99.90;;;;;;20811606;28;20511;-76
2022/04/18 01:36:59;;;;;;;4.88;2.72;;;6.10;99.90;;;;;;20884641;28;20025;-76
2022/04/18 01:47:00;;;;;;;5.53;2.60;;;5.90;99.90;;;;;;20913102;28;20044;-76
2022/04/18 01:57:01;;;;;;;6.07;3.10;;;5.80;99.90;;;;;;20824325;28;20036;-76
2022/04/18 02:07:02;;;;;;;5.10;2.57;;;4.80;99.90;;;;;;20824955;28;20029;-75
2022/04/18 02:17:04;;;;;;;3.85;2.20;;;4.20;99.90;;;;;;20826833;28;20022;-76
2022/04/18 02:27:06;;;;;;;;;;;4.10;99.90;;;;;;20807456;28;20037;-76
2022/04/18 02:37:07;;;;;;;5.60;2.40;;;3.80;99.90;;;;;;20866153;28;19936;-76
2022/04/18 02:47:10;;;;;;;3.55;2.53;;;4.10;99.90;;;;;;20889496;28;20123;-76
2022/04/18 02:57:12;;;;;;;6.80;2.53;;;3.90;99.90;;;;;;20832072;28;20408;-77
2022/04/18 03:07:14;;;;;;;4.82;2.35;;;3.80;99.90;;;;;;20805549;28;20025;-75
2022/04/18 03:17:19;;;;;;;;;;;3.50;99.90;;;;;;20824050;28;20026;-75
2022/04/18 03:27:20;;;;;;;4.25;2.35;;;3.30;99.90;;;;;;20820199;28;19920;-76
2022/04/18 03:47:41;;;;;;;7.47;3.03;;;3.00;99.90;;;;;;20898620;28;20044;-74
2022/04/18 03:57:43;;;;;;;4.32;2.35;;;2.80;99.90;;;;;;20823495;28;20129;-74
2022/04/18 04:07:45;;;;;;;5.93;2.13;;;2.40;99.90;;;;;;20880289;28;20040;-73
2022/04/18 04:18:08;;;;;;;2.30;2.00;;;2.60;99.90;;;;;;20910497;28;20048;-73
2022/04/18 04:28:11;;;;;;;2.78;2.00;;;2.80;99.90;;;;;;20897642;28;20037;-73
2022/04/18 04:38:12;;;;;;;5.63;2.33;;;3.40;99.90;;;;;;20856267;28;20037;-73
2022/04/18 04:48:33;;;;;;;2.20;1.67;;;3.50;99.90;;;;;;20897404;28;20187;-73
2022/04/18 04:58:41;;;;;;;4.57;2.63;;;3.10;99.90;;;;;;20812605;28;20391;-73
2022/04/18 05:08:44;;;;;;;2.97;2.22;;;3.10;99.90;;;;;;20817403;28;20033;-73
2022/04/18 05:18:45;;;;;;;;;;;3.70;99.90;;;;;;20812139;28;20519;-73
2022/04/18 05:28:46;;;;;;;5.50;2.43;;;3.70;99.90;;;;;;20885940;22;19939;-79
2022/04/18 05:38:47;;;;;;;3.83;2.67;;;4.10;99.90;;;;;;20903912;28;20500;-78
2022/04/18 05:49:20;;;;;;;4.57;2.63;;;4.40;99.90;;;;;;20840384;28;20488;-79
2022/04/18 05:59:22;;;;;;;6.65;2.85;;;5.70;99.90;;;;;;20881966;28;20064;-79
2022/04/18 06:09:32;;;;;;;3.72;2.03;;;6.60;99.90;;;;;;20898619;28;20068;-76
2022/04/18 06:19:33;;;;;;;3.58;2.20;;;7.20;99.90;;;;;;20897079;28;20029;-78
2022/04/18 06:29:37;;;;;;;3.90;2.08;;;8.10;99.90;;;;;;20898148;28;20036;-79
2022/04/18 06:39:38;;;;;;;4.97;2.17;;;8.40;99.90;;;;;;20836748;28;20278;-79
2022/04/18 06:49:48;;;;;;;7.38;2.08;;;9.30;99.90;;;;;;20844632;28;20026;-79
2022/04/18 07:00:08;;;;;;;9.40;3.00;;;10.30;99.90;;;;;;20860001;28;20539;-79
2022/04/18 07:10:09;;;;;;;4.88;2.38;;;11.00;99.90;;;;;;20848972;28;20117;-79
2022/04/18 07:20:10;;;;;;;2.90;2.30;;;11.10;99.90;;;;;;20843210;28;20125;-78
2022/04/18 07:30:13;;;;;;;6.30;2.72;;;11.20;99.90;;;;;;20812901;28;20430;-77
2022/04/18 07:40:14;;;;;;;2.80;1.87;;;11.20;99.90;;;;;;20895334;28;20118;-78
2022/04/18 07:50:15;;;;;;;5.33;2.47;;;12.00;99.90;;;;;;20851680;28;20036;-79
2022/04/18 08:00:17;;;;;;;3.50;2.10;;;12.70;99.90;;;;;;20893625;28;20495;-76
2022/04/18 08:10:28;;;;;;;1.80;1.60;;;13.00;99.90;;;;;;20855161;28;20406;-78
2022/04/18 08:20:29;;;;;;;4.85;1.95;;;12.30;99.90;;;;;;20839586;28;20045;-77
2022/04/18 08:30:30;;;;;;;3.07;1.97;;;12.80;99.90;;;;;;20840305;28;20037;-77
2022/04/18 08:40:43;;;;;;;3.13;1.70;;;14.00;99.60;;;;;;20835173;28;20064;-78
2022/04/18 09:01:06;;;;;;;2.88;1.70;;;15.40;99.00;;;;;;20832057;28;20771;-77
2022/04/18 09:11:30;;;;;;;3.30;1.90;;;16.30;97.40;;;;;;20847456;28;20050;-78
2022/04/18 09:21:33;;;;;;;2.92;1.73;;;15.60;96.80;;;;;;20839179;28;20030;-76
2022/04/18 09:31:41;;;;;;;3.17;2.00;;;16.30;95.50;;;;;;20834645;28;20044;-78
2022/04/18 09:42:08;;;;;;;9.93;1.70;;;17.10;94.50;;;;;;20834857;28;20025;-77
2022/04/18 09:52:32;;;;;;;3.35;1.70;;;18.50;92.30;;;;;;20855010;28;20406;-77
2022/04/18 10:02:35;;;;;;;2.13;1.45;;;18.50;91.30;;;;;;20823731;28;20072;-77
2022/04/18 10:12:36;;;;;;;3.00;1.58;;;18.70;88.60;;;;;;20863284;28;20084;-79
2022/04/18 10:23:03;;;;;;;2.87;1.30;;;19.40;87.70;;;;;;20805732;28;20033;-78
2022/04/18 10:33:05;;;;;;;1.90;1.27;;;19.10;90.20;;;;;;20811410;28;20200;-77
2022/04/18 10:43:11;;;;;;;;;;;19.90;84.50;;;;;;20869377;28;20557;-78
2022/04/18 10:53:14;;;;;;;1.33;0.82;;;20.20;78.60;;;;;;20886943;28;19940;-79
2022/04/18 11:03:35;;;;;;;1.98;1.33;;;20.90;79.90;;;;;;20896676;28;20498;-78
2022/04/18 11:13:42;;;;;;;1.63;1.15;;;20.60;79.00;;;;;;20843670;28;20056;-76
2022/04/18 11:23:43;;;;;;;2.20;1.20;;;21.10;80.00;;;;;;20883268;28;20045;-79
2022/04/18 11:33:45;;;;;;;2.27;0.87;;;21.40;76.20;;;;;;20979128;22;20688;-77
2022/04/18 11:43:45;;;;;;;2.30;1.33;;;20.90;79.20;;;;;;20882618;28;20044;-77
2022/04/18 11:53:47;;;;;;;2.30;1.00;;;21.70;69.80;;;;;;20861997;28;20451;-77
2022/04/18 12:14:08;;;;;;;4.22;0.77;;;21.50;70.10;;;;;;20858596;28;20180;-77
2022/04/18 12:24:09;;;;;;;2.10;0.80;;;21.00;68.40;;;;;;20848375;28;20029;-77
2022/04/18 12:34:20;;;;;;;0.90;0.73;;;21.70;70.60;;;;;;20833866;28;20072;-77
2022/04/18 12:44:21;;;;;;;2.17;1.20;;;22.50;61.60;;;;;;20853846;28;20041;-77
2022/04/18 12:54:24;;;;;;;0.97;0.70;;;22.60;63.00;;;;;;20872189;28;20124;-77
2022/04/18 13:04:26;;;;;;;2.97;1.50;;;22.70;60.50;;;;;;20842328;28;20089;-76
2022/04/18 13:14:27;;;;;;;4.60;1.70;;;22.70;59.80;;;;;;20850685;28;20068;-77
2022/04/18 13:24:28;;;;;;;9.93;3.37;;;23.10;60.50;;;;;;20849097;28;20067;-77
2022/04/18 13:34:29;;;;;;;16.57;4.20;;;22.90;60.10;;;;;;20845661;28;20392;-77
2022/04/18 13:44:31;;;;;;;4.53;2.20;;;22.90;61.50;;;;;;20838543;28;20558;-76
2022/04/18 13:54:32;;;;;;;1.52;0.70;;;22.30;61.00;;;;;;20911912;28;20047;-77
2022/04/18 14:04:32;;;;;;;0.97;0.50;;;22.40;56.20;;;;;;20892392;28;20678;-76
2022/04/18 14:24:53;;;;;;;2.85;1.00;;;22.40;56.60;;;;;;20867539;28;20037;-77
2022/04/18 14:34:54;;;;;;;2.73;0.80;;;22.30;60.70;;;;;;20885327;28;20049;-77
2022/04/18 14:44:55;;;;;;;1.07;0.60;;;22.60;60.10;;;;;;20921740;28;20484;-78
2022/04/18 14:54:56;;;;;;;0.70;0.60;;;22.10;58.90;;;;;;20880937;28;20021;-77
2022/04/18 15:04:56;;;;;;;2.00;0.83;;;21.60;61.00;;;;;;20850148;28;20036;-76
2022/04/18 15:14:57;;;;;;;2.57;0.93;;;21.30;61.00;;;;;;20879625;28;20021;-77
2022/04/18 15:24:58;;;;;;;2.07;0.90;;;21.80;60.20;;;;;;20863005;28;20555;-77
2022/04/18 15:34:59;;;;;;;1.40;0.80;;;21.20;62.60;;;;;;20879325;28;20083;-78
2022/04/18 15:45:00;;;;;;;3.17;1.20;;;21.10;61.60;;;;;;20852279;28;20025;-77
2022/04/18 15:55:01;;;;;;;1.40;1.10;;;21.50;60.70;;;;;;20874687;28;20020;-77
2022/04/18 16:05:03;;;;;;;1.37;0.80;;;20.40;64.10;;;;;;20897947;28;20028;-75
2022/04/18 16:15:04;;;;;;;1.30;0.82;;;19.90;65.60;;;;;;20853889;28;20291;-76
2022/04/18 16:25:05;;;;;;;1.90;0.90;;;19.40;65.70;;;;;;20907091;28;20434;-77
2022/04/18 16:35:06;;;;;;;1.57;0.80;;;19.10;63.60;;;;;;20874169;28;20067;-76
2022/04/18 16:55:27;;;;;;;1.52;0.90;;;19.00;64.50;;;;;;20874353;28;20040;-76
2022/04/18 17:05:28;;;;;;;1.07;0.80;;;18.80;65.20;;;;;;20869700;28;20028;-76
2022/04/18 17:15:28;;;;;;;4.10;0.97;;;18.50;65.80;;;;;;20868650;28;20040;-76
2022/04/18 17:25:29;;;;;;;0.83;0.70;;;18.10;66.60;;;;;;20866494;28;20037;-76
2022/04/18 17:35:30;;;;;;;3.10;1.27;;;18.10;66.50;;;;;;20977586;22;20490;-74
2022/04/18 17:45:31;;;;;;;2.47;1.07;;;17.80;68.50;;;;;;20907800;28;20037;-74
2022/04/18 17:55:48;;;;;;;1.37;0.70;;;17.30;71.60;;;;;;20879410;28;20044;-75
2022/04/18 18:05:49;;;;;;;1.30;0.70;;;16.40;79.20;;;;;;20862137;28;20376;-75
2022/04/18 18:15:50;;;;;;;1.10;0.60;;;14.70;87.90;;;;;;20895597;28;20437;-75
2022/04/18 18:25:51;;;;;;;2.23;0.80;;;13.50;88.50;;;;;;20876312;28;20029;-76
2022/04/18 18:35:52;;;;;;;0.83;0.80;;;12.40;91.70;;;;;;20893309;28;20040;-77
2022/04/18 18:45:53;;;;;;;1.93;1.30;;;12.80;91.20;;;;;;20895634;28;20041;-76
2022/04/18 18:55:54;;;;;;;1.93;1.20;;;12.10;91.50;;;;;;20879328;28;20041;-75
2022/04/18 19:05:55;;;;;;;4.07;2.73;;;11.50;93.10;;;;;;20883056;28;20032;-77
2022/04/18 19:15:56;;;;;;;2.97;1.27;;;12.00;92.40;;;;;;20928790;28;20035;-76
2022/04/18 19:36:19;;;;;;;2.28;1.35;;;12.10;91.10;;;;;;20900758;28;20086;-76
2022/04/18 19:46:22;;;;;;;2.60;1.15;;;12.00;91.70;;;;;;20868292;28;20746;-76
2022/04/18 19:56:22;;;;;;;1.38;1.10;;;11.80;91.90;;;;;;20827274;28;20033;-75
2022/04/18 20:06:23;;;;;;;2.43;1.00;;;11.60;92.50;;;;;;20881116;28;20037;-75
2022/04/18 20:16:24;;;;;;;3.77;1.40;;;11.50;92.40;;;;;;20877582;28;20040;-75
2022/04/18 20:26:25;;;;;;;2.20;1.33;;;11.10;93.30;;;;;;20870817;28;20060;-75
2022/04/18 20:36:26;;;;;;;2.07;1.10;;;11.00;94.30;;;;;;20896635;28;20041;-76
2022/04/18 20:46:28;;;;;;;2.78;1.17;;;10.80;94.90;;;;;;20863090;28;20033;-77
2022/04/18 21:06:48;;;;;;;4.20;1.17;;;10.60;95.70;;;;;;20817273;28;20047;-75
2022/04/18 21:16:49;;;;;;;1.77;1.00;;;10.30;96.30;;;;;;20852985;28;20044;-75
2022/04/18 21:26:50;;;;;;;3.57;1.63;;;10.10;97.10;;;;;;20791894;28;20044;-75
2022/04/18 21:36:52;;;;;;;2.90;1.40;;;9.80;98.10;;;;;;20809639;28;20419;-75
2022/04/18 21:46:54;;;;;;;2.80;1.40;;;9.70;99.80;;;;;;20896657;28;20418;-74
2022/04/18 21:56:56;;;;;;;2.57;1.70;;;9.70;99.70;;;;;;20955388;28;20035;-75
2022/04/18 22:06:57;;;;;;;6.23;1.60;;;9.50;99.90;;;;;;20956704;28;20043;-75
2022/04/18 22:16:58;;;;;;;3.03;1.63;;;9.30;99.90;;;;;;20873642;28;20059;-75
2022/04/18 22:26:59;;;;;;;2.27;1.07;;;9.20;99.90;;;;;;20869447;28;20743;-76
2022/04/18 22:36:59;;;;;;;3.80;1.67;;;9.10;99.90;;;;;;20847306;28;20403;-75
2022/04/18 22:47:01;;;;;;;2.67;1.67;;;8.60;99.90;;;;;;20909695;28;20112;-76
2022/04/18 22:57:02;;;;;;;3.20;1.70;;;8.40;99.90;;;;;;20897904;28;20078;-75
2022/04/18 23:07:04;;;;;;;3.67;1.73;;;8.50;99.90;;;;;;20923646;28;20025;-75
2022/04/18 23:17:05;;;;;;;2.70;1.27;;;8.60;99.90;;;;;;20924582;28;20037;-75
2022/04/18 23:27:06;;;;;;;2.57;1.70;;;8.50;99.90;;;;;;20924910;22;20570;-76
2022/04/18 23:37:09;;;;;;;2.93;1.53;;;8.50;99.90;;;;;;20966993;28;20493;-76
2022/04/18 23:47:10;;;;;;;2.95;1.73;;;8.40;99.90;;;;;;20954764;28;20375;-75
2022/04/18 23:57:11;;;;;;;4.63;2.00;;;8.20;99.90;;;;;;20907637;28;20029;-73
